sensor_id;sensor_type;location;lat;lon;timestamp;pressure;altitude;pressure_sealevel;temperature;humidity
49063;BME280;34876;51.464;-0.150;2023-04-22T00:03:17;100733.26;;;17.76;39.83
49063;BME280;34876;51.464;-0.150;2023-04-22T00:05:46;100731.14;;;17.76;39.84
49063;BME280;34876;51.464;-0.150;2023-04-22T00:08:16;100728.26;;;17.74;39.89
49063;BME280;34876;51.464;-0.150;2023-04-22T00:10:45;100723.90;;;17.73;39.88
49063;BME280;34876;51.464;-0.150;2023-04-22T00:13:14;100720.03;;;17.74;39.88
49063;BME280;34876;51.464;-0.150;2023-04-22T00:15:44;100717.63;;;17.74;39.92
49063;BME280;34876;51.464;-0.150;2023-04-22T00:18:14;100717.88;;;17.74;39.89
49063;BME280;34876;51.464;-0.150;2023-04-22T00:20:44;100718.85;;;17.74;39.89
49063;BME280;34876;51.464;-0.150;2023-04-22T00:23:13;100716.32;;;17.74;39.87
49063;BME280;34876;51.464;-0.150;2023-04-22T00:25:42;100712.85;;;17.74;39.85
49063;BME280;34876;51.464;-0.150;2023-04-22T00:28:10;100708.92;;;17.72;39.87
49063;BME280;34876;51.464;-0.150;2023-04-22T00:30:40;100703.57;;;17.71;39.93
49063;BME280;34876;51.464;-0.150;2023-04-22T00:33:09;100699.74;;;17.71;39.89
49063;BME280;34876;51.464;-0.150;2023-04-22T00:35:39;100691.16;;;17.72;39.86
49063;BME280;34876;51.464;-0.150;2023-04-22T00:38:09;100684.14;;;17.71;39.89
49063;BME280;34876;51.464;-0.150;2023-04-22T00:40:39;100678.58;;;17.72;39.85
49063;BME280;34876;51.464;-0.150;2023-04-22T00:43:10;100675.10;;;17.72;39.87
49063;BME280;34876;51.464;-0.150;2023-04-22T00:45:41;100675.10;;;17.71;39.84
49063;BME280;34876;51.464;-0.150;2023-04-22T00:48:12;100676.48;;;17.71;39.85
49063;BME280;34876;51.464;-0.150;2023-04-22T00:50:41;100674.10;;;17.71;39.83
49063;BME280;34876;51.464;-0.150;2023-04-22T00:53:11;100671.84;;;17.71;39.80
49063;BME280;34876;51.464;-0.150;2023-04-22T00:55:43;100670.26;;;17.71;39.83
49063;BME280;34876;51.464;-0.150;2023-04-22T00:58:13;100667.36;;;17.70;39.81
49063;BME280;34876;51.464;-0.150;2023-04-22T01:00:42;100667.43;;;17.70;39.82
49063;BME280;34876;51.464;-0.150;2023-04-22T01:03:11;100665.42;;;17.72;39.76
49063;BME280;34876;51.464;-0.150;2023-04-22T01:05:42;100665.15;;;17.72;39.73
49063;BME280;34876;51.464;-0.150;2023-04-22T01:08:13;100660.20;;;17.72;39.75
49063;BME280;34876;51.464;-0.150;2023-04-22T01:10:43;100654.48;;;17.71;39.76
49063;BME280;34876;51.464;-0.150;2023-04-22T01:13:11;100649.38;;;17.71;39.75
49063;BME280;34876;51.464;-0.150;2023-04-22T01:15:40;100644.16;;;17.69;39.73
49063;BME280;34876;51.464;-0.150;2023-04-22T01:18:09;100645.70;;;17.69;39.72
49063;BME280;34876;51.464;-0.150;2023-04-22T01:20:39;100645.36;;;17.71;39.69
49063;BME280;34876;51.464;-0.150;2023-04-22T01:23:14;100644.00;;;17.70;39.70
49063;BME280;34876;51.464;-0.150;2023-04-22T01:25:45;100644.13;;;17.70;39.71
49063;BME280;34876;51.464;-0.150;2023-04-22T01:28:15;100646.07;;;17.68;39.73
49063;BME280;34876;51.464;-0.150;2023-04-22T01:30:45;100643.31;;;17.69;39.70
49063;BME280;34876;51.464;-0.150;2023-04-22T01:33:16;100643.23;;;17.69;39.67
49063;BME280;34876;51.464;-0.150;2023-04-22T01:35:45;100638.86;;;17.69;39.66
49063;BME280;34876;51.464;-0.150;2023-04-22T01:38:14;100636.96;;;17.67;39.70
49063;BME280;34876;51.464;-0.150;2023-04-22T01:40:43;100637.04;;;17.67;39.70
49063;BME280;34876;51.464;-0.150;2023-04-22T01:43:12;100636.22;;;17.67;39.67
49063;BME280;34876;51.464;-0.150;2023-04-22T01:45:42;100636.71;;;17.67;39.67
49063;BME280;34876;51.464;-0.150;2023-04-22T01:48:11;100634.46;;;17.67;39.67
49063;BME280;34876;51.464;-0.150;2023-04-22T01:50:40;100632.03;;;17.68;39.64
49063;BME280;34876;51.464;-0.150;2023-04-22T01:53:09;100629.07;;;17.67;39.66
49063;BME280;34876;51.464;-0.150;2023-04-22T01:55:38;100627.11;;;17.66;39.66
49063;BME280;34876;51.464;-0.150;2023-04-22T01:58:07;100630.72;;;17.66;39.64
49063;BME280;34876;51.464;-0.150;2023-04-22T02:00:36;100631.85;;;17.66;39.64
49063;BME280;34876;51.464;-0.150;2023-04-22T02:03:04;100633.90;;;17.67;39.61
49063;BME280;34876;51.464;-0.150;2023-04-22T02:05:33;100636.03;;;17.66;39.63
49063;BME280;34876;51.464;-0.150;2023-04-22T02:08:03;100637.89;;;17.67;39.64
49063;BME280;34876;51.464;-0.150;2023-04-22T02:10:32;100638.53;;;17.67;39.59
49063;BME280;34876;51.464;-0.150;2023-04-22T02:13:01;100637.95;;;17.66;39.60
49063;BME280;34876;51.464;-0.150;2023-04-22T02:15:29;100637.25;;;17.65;39.63
49063;BME280;34876;51.464;-0.150;2023-04-22T02:17:59;100635.74;;;17.66;39.56
49063;BME280;34876;51.464;-0.150;2023-04-22T02:20:28;100636.71;;;17.65;39.56
49063;BME280;34876;51.464;-0.150;2023-04-22T02:22:58;100634.63;;;17.65;39.57
49063;BME280;34876;51.464;-0.150;2023-04-22T02:25:27;100635.18;;;17.65;39.60
49063;BME280;34876;51.464;-0.150;2023-04-22T02:27:56;100634.92;;;17.66;39.58
49063;BME280;34876;51.464;-0.150;2023-04-22T02:30:26;100633.16;;;17.67;39.52
49063;BME280;34876;51.464;-0.150;2023-04-22T02:32:55;100627.41;;;17.66;39.48
49063;BME280;34876;51.464;-0.150;2023-04-22T02:35:24;100624.93;;;17.66;39.53
49063;BME280;34876;51.464;-0.150;2023-04-22T02:37:53;100620.48;;;17.65;39.60
49063;BME280;34876;51.464;-0.150;2023-04-22T02:40:23;100621.93;;;17.67;39.59
49063;BME280;34876;51.464;-0.150;2023-04-22T02:42:52;100619.37;;;17.67;39.60
49063;BME280;34876;51.464;-0.150;2023-04-22T02:45:21;100614.57;;;17.66;39.54
49063;BME280;34876;51.464;-0.150;2023-04-22T02:47:50;100609.64;;;17.67;39.48
49063;BME280;34876;51.464;-0.150;2023-04-22T02:50:20;100609.11;;;17.67;39.52
49063;BME280;34876;51.464;-0.150;2023-04-22T02:52:51;100608.64;;;17.67;39.47
49063;BME280;34876;51.464;-0.150;2023-04-22T02:55:23;100608.74;;;17.68;39.43
49063;BME280;34876;51.464;-0.150;2023-04-22T02:57:54;100604.85;;;17.68;39.44
49063;BME280;34876;51.464;-0.150;2023-04-22T03:00:24;100604.82;;;17.67;39.45
49063;BME280;34876;51.464;-0.150;2023-04-22T03:02:53;100602.74;;;17.68;39.46
49063;BME280;34876;51.464;-0.150;2023-04-22T03:05:21;100599.71;;;17.68;39.42
49063;BME280;34876;51.464;-0.150;2023-04-22T03:07:50;100599.70;;;17.67;39.43
49063;BME280;34876;51.464;-0.150;2023-04-22T03:10:20;100595.56;;;17.67;39.41
49063;BME280;34876;51.464;-0.150;2023-04-22T03:12:50;100588.57;;;17.67;39.38
49063;BME280;34876;51.464;-0.150;2023-04-22T03:15:20;100585.34;;;17.67;39.38
49063;BME280;34876;51.464;-0.150;2023-04-22T03:17:49;100581.98;;;17.67;39.38
49063;BME280;34876;51.464;-0.150;2023-04-22T03:20:18;100575.06;;;17.68;39.33
49063;BME280;34876;51.464;-0.150;2023-04-22T03:22:47;100570.82;;;17.67;39.37
49063;BME280;34876;51.464;-0.150;2023-04-22T03:25:16;100567.35;;;17.66;39.36
49063;BME280;34876;51.464;-0.150;2023-04-22T03:27:45;100560.22;;;17.66;39.34
49063;BME280;34876;51.464;-0.150;2023-04-22T03:30:14;100558.36;;;17.66;39.33
49063;BME280;34876;51.464;-0.150;2023-04-22T03:32:44;100555.12;;;17.66;39.34
49063;BME280;34876;51.464;-0.150;2023-04-22T03:35:14;100552.02;;;17.67;39.30
49063;BME280;34876;51.464;-0.150;2023-04-22T03:37:43;100554.83;;;17.65;39.34
49063;BME280;34876;51.464;-0.150;2023-04-22T03:40:12;100556.21;;;17.66;39.27
49063;BME280;34876;51.464;-0.150;2023-04-22T03:42:42;100553.61;;;17.66;39.26
49063;BME280;34876;51.464;-0.150;2023-04-22T03:45:11;100558.77;;;17.65;39.25
49063;BME280;34876;51.464;-0.150;2023-04-22T03:47:40;100560.16;;;17.64;39.30
49063;BME280;34876;51.464;-0.150;2023-04-22T03:50:11;100558.55;;;17.64;39.25
49063;BME280;34876;51.464;-0.150;2023-04-22T03:52:40;100557.45;;;17.65;39.22
49063;BME280;34876;51.464;-0.150;2023-04-22T03:55:09;100553.36;;;17.64;39.27
49063;BME280;34876;51.464;-0.150;2023-04-22T03:57:38;100548.72;;;17.65;39.21
49063;BME280;34876;51.464;-0.150;2023-04-22T04:00:07;100541.92;;;17.64;39.24
49063;BME280;34876;51.464;-0.150;2023-04-22T04:02:42;100535.86;;;17.65;39.21
49063;BME280;34876;51.464;-0.150;2023-04-22T04:05:13;100532.56;;;17.66;39.17
49063;BME280;34876;51.464;-0.150;2023-04-22T04:07:42;100529.64;;;17.65;39.17
49063;BME280;34876;51.464;-0.150;2023-04-22T04:10:13;100526.57;;;17.64;39.20
49063;BME280;34876;51.464;-0.150;2023-04-22T04:12:42;100531.14;;;17.64;39.16
49063;BME280;34876;51.464;-0.150;2023-04-22T04:15:11;100537.39;;;17.64;39.15
49063;BME280;34876;51.464;-0.150;2023-04-22T04:17:40;100535.24;;;17.65;39.13
49063;BME280;34876;51.464;-0.150;2023-04-22T04:20:09;100535.43;;;17.64;39.13
49063;BME280;34876;51.464;-0.150;2023-04-22T04:22:44;100537.67;;;17.64;39.11
49063;BME280;34876;51.464;-0.150;2023-04-22T04:25:13;100538.24;;;17.64;39.12
49063;BME280;34876;51.464;-0.150;2023-04-22T04:27:42;100540.45;;;17.65;39.06
49063;BME280;34876;51.464;-0.150;2023-04-22T04:30:17;100539.70;;;17.65;39.08
49063;BME280;34876;51.464;-0.150;2023-04-22T04:32:45;100537.61;;;17.63;39.13
49063;BME280;34876;51.464;-0.150;2023-04-22T04:35:14;100533.68;;;17.65;39.04
49063;BME280;34876;51.464;-0.150;2023-04-22T04:37:43;100531.95;;;17.65;39.05
49063;BME280;34876;51.464;-0.150;2023-04-22T04:40:13;100533.79;;;17.65;39.06
49063;BME280;34876;51.464;-0.150;2023-04-22T04:42:43;100530.61;;;17.64;39.07
49063;BME280;34876;51.464;-0.150;2023-04-22T04:45:12;100530.48;;;17.65;39.02
49063;BME280;34876;51.464;-0.150;2023-04-22T04:47:41;100532.50;;;17.64;39.05
49063;BME280;34876;51.464;-0.150;2023-04-22T04:50:11;100527.66;;;17.64;39.04
49063;BME280;34876;51.464;-0.150;2023-04-22T04:52:39;100531.58;;;17.65;39.02
49063;BME280;34876;51.464;-0.150;2023-04-22T04:55:09;100532.07;;;17.65;38.97
49063;BME280;34876;51.464;-0.150;2023-04-22T04:57:38;100534.68;;;17.66;39.01
49063;BME280;34876;51.464;-0.150;2023-04-22T05:00:08;100536.90;;;17.65;39.02
49063;BME280;34876;51.464;-0.150;2023-04-22T05:02:38;100534.17;;;17.65;38.96
49063;BME280;34876;51.464;-0.150;2023-04-22T05:05:08;100532.30;;;17.65;38.98
49063;BME280;34876;51.464;-0.150;2023-04-22T05:07:38;100529.59;;;17.67;38.97
49063;BME280;34876;51.464;-0.150;2023-04-22T05:10:09;100526.87;;;17.66;38.96
49063;BME280;34876;51.464;-0.150;2023-04-22T05:12:37;100527.65;;;17.66;38.97
49063;BME280;34876;51.464;-0.150;2023-04-22T05:15:08;100531.20;;;17.67;38.96
49063;BME280;34876;51.464;-0.150;2023-04-22T05:17:36;100530.90;;;17.66;39.01
49063;BME280;34876;51.464;-0.150;2023-04-22T05:20:06;100530.52;;;17.66;38.90
49063;BME280;34876;51.464;-0.150;2023-04-22T05:22:36;100526.91;;;17.68;38.92
49063;BME280;34876;51.464;-0.150;2023-04-22T05:25:06;100529.42;;;17.67;38.89
49063;BME280;34876;51.464;-0.150;2023-04-22T05:27:35;100523.30;;;17.67;38.85
49063;BME280;34876;51.464;-0.150;2023-04-22T05:30:07;100520.36;;;17.68;38.88
49063;BME280;34876;51.464;-0.150;2023-04-22T05:32:36;100524.21;;;17.67;38.88
49063;BME280;34876;51.464;-0.150;2023-04-22T05:35:05;100526.58;;;17.69;38.83
49063;BME280;34876;51.464;-0.150;2023-04-22T05:37:35;100527.15;;;17.68;38.83
49063;BME280;34876;51.464;-0.150;2023-04-22T05:40:04;100524.41;;;17.67;38.83
49063;BME280;34876;51.464;-0.150;2023-04-22T05:42:33;100529.14;;;17.69;38.78
49063;BME280;34876;51.464;-0.150;2023-04-22T05:45:07;100532.60;;;17.69;38.78
49063;BME280;34876;51.464;-0.150;2023-04-22T05:47:37;100535.40;;;17.69;38.81
49063;BME280;34876;51.464;-0.150;2023-04-22T05:50:07;100538.75;;;17.70;38.76
49063;BME280;34876;51.464;-0.150;2023-04-22T05:52:37;100538.34;;;17.71;38.74
49063;BME280;34876;51.464;-0.150;2023-04-22T05:55:07;100538.22;;;17.72;38.71
49063;BME280;34876;51.464;-0.150;2023-04-22T05:57:36;100534.82;;;17.72;38.75
49063;BME280;34876;51.464;-0.150;2023-04-22T06:00:07;100524.68;;;17.76;38.62
49063;BME280;34876;51.464;-0.150;2023-04-22T06:02:36;100522.35;;;17.73;38.67
49063;BME280;34876;51.464;-0.150;2023-04-22T06:05:07;100517.32;;;17.73;38.74
49063;BME280;34876;51.464;-0.150;2023-04-22T06:07:44;100514.68;;;17.73;38.64
49063;BME280;34876;51.464;-0.150;2023-04-22T06:10:13;100508.83;;;17.74;38.65
49063;BME280;34876;51.464;-0.150;2023-04-22T06:12:42;100508.42;;;17.73;38.66
49063;BME280;34876;51.464;-0.150;2023-04-22T06:15:10;100507.21;;;17.74;38.64
49063;BME280;34876;51.464;-0.150;2023-04-22T06:17:39;100509.73;;;17.74;38.70
49063;BME280;34876;51.464;-0.150;2023-04-22T06:20:10;100511.34;;;17.75;38.62
49063;BME280;34876;51.464;-0.150;2023-04-22T06:22:41;100516.37;;;17.76;38.65
49063;BME280;34876;51.464;-0.150;2023-04-22T06:25:11;100522.46;;;17.77;38.57
49063;BME280;34876;51.464;-0.150;2023-04-22T06:27:39;100527.45;;;17.79;38.63
49063;BME280;34876;51.464;-0.150;2023-04-22T06:30:09;100523.47;;;17.78;38.58
49063;BME280;34876;51.464;-0.150;2023-04-22T06:32:38;100516.08;;;17.82;38.49
49063;BME280;34876;51.464;-0.150;2023-04-22T06:35:08;100517.41;;;17.88;38.39
49063;BME280;34876;51.464;-0.150;2023-04-22T06:37:37;100519.77;;;17.89;38.42
49063;BME280;34876;51.464;-0.150;2023-04-22T06:40:12;100523.38;;;17.86;38.47
49063;BME280;34876;51.464;-0.150;2023-04-22T06:42:42;100523.22;;;17.84;38.51
49063;BME280;34876;51.464;-0.150;2023-04-22T06:45:12;100520.88;;;17.85;38.46
49063;BME280;34876;51.464;-0.150;2023-04-22T06:47:42;100524.02;;;17.93;38.33
49063;BME280;34876;51.464;-0.150;2023-04-22T06:50:11;100522.79;;;18.02;38.15
49063;BME280;34876;51.464;-0.150;2023-04-22T06:52:39;100525.07;;;18.10;38.00
49063;BME280;34876;51.464;-0.150;2023-04-22T06:55:09;100528.28;;;18.24;37.71
49063;BME280;34876;51.464;-0.150;2023-04-22T06:57:38;100530.79;;;18.38;37.46
49063;BME280;34876;51.464;-0.150;2023-04-22T07:00:09;100535.85;;;18.56;37.06
49063;BME280;34876;51.464;-0.150;2023-04-22T07:02:39;100540.27;;;18.69;36.80
49063;BME280;34876;51.464;-0.150;2023-04-22T07:05:10;100536.06;;;18.75;36.68
49063;BME280;34876;51.464;-0.150;2023-04-22T07:07:39;100538.94;;;18.63;36.99
49063;BME280;34876;51.464;-0.150;2023-04-22T07:10:09;100539.72;;;18.48;37.29
49063;BME280;34876;51.464;-0.150;2023-04-22T07:12:38;100540.26;;;18.40;37.44
49063;BME280;34876;51.464;-0.150;2023-04-22T07:15:07;100543.16;;;18.33;37.64
49063;BME280;34876;51.464;-0.150;2023-04-22T07:17:37;100543.68;;;18.29;37.72
49063;BME280;34876;51.464;-0.150;2023-04-22T07:20:07;100546.90;;;18.22;37.88
49063;BME280;34876;51.464;-0.150;2023-04-22T07:22:37;100548.68;;;18.17;38.01
49063;BME280;34876;51.464;-0.150;2023-04-22T07:25:06;100551.05;;;18.13;38.16
49063;BME280;34876;51.464;-0.150;2023-04-22T07:27:36;100550.84;;;18.13;38.13
49063;BME280;34876;51.464;-0.150;2023-04-22T07:30:08;100550.81;;;18.11;38.22
49063;BME280;34876;51.464;-0.150;2023-04-22T07:32:41;100546.15;;;18.10;38.25
49063;BME280;34876;51.464;-0.150;2023-04-22T07:35:10;100545.20;;;18.09;38.26
49063;BME280;34876;51.464;-0.150;2023-04-22T07:37:40;100541.95;;;18.09;38.32
49063;BME280;34876;51.464;-0.150;2023-04-22T07:40:10;100545.03;;;18.10;38.31
49063;BME280;34876;51.464;-0.150;2023-04-22T07:42:39;100546.24;;;18.18;38.14
49063;BME280;34876;51.464;-0.150;2023-04-22T07:45:12;100544.04;;;18.29;37.95
49063;BME280;34876;51.464;-0.150;2023-04-22T07:47:42;100542.83;;;18.36;37.78
49063;BME280;34876;51.464;-0.150;2023-04-22T07:50:10;100540.96;;;18.41;37.70
49063;BME280;34876;51.464;-0.150;2023-04-22T07:52:39;100538.28;;;18.33;37.87
49063;BME280;34876;51.464;-0.150;2023-04-22T07:55:08;100539.40;;;18.25;38.07
49063;BME280;34876;51.464;-0.150;2023-04-22T07:57:37;100539.14;;;18.18;38.24
49063;BME280;34876;51.464;-0.150;2023-04-22T08:00:08;100537.05;;;18.17;38.31
49063;BME280;34876;51.464;-0.150;2023-04-22T08:02:37;100537.76;;;18.16;38.32
49063;BME280;34876;51.464;-0.150;2023-04-22T08:05:07;100537.19;;;18.16;38.36
49063;BME280;34876;51.464;-0.150;2023-04-22T08:07:36;100535.51;;;18.21;38.25
49063;BME280;34876;51.464;-0.150;2023-04-22T08:10:06;100533.78;;;18.27;38.17
49063;BME280;34876;51.464;-0.150;2023-04-22T08:12:36;100529.03;;;18.29;38.12
49063;BME280;34876;51.464;-0.150;2023-04-22T08:15:06;100527.03;;;18.29;38.18
49063;BME280;34876;51.464;-0.150;2023-04-22T08:17:35;100522.37;;;18.24;38.26
49063;BME280;34876;51.464;-0.150;2023-04-22T08:20:05;100527.71;;;18.20;38.37
49063;BME280;34876;51.464;-0.150;2023-04-22T08:22:35;100527.39;;;18.17;38.45
49063;BME280;34876;51.464;-0.150;2023-04-22T08:25:05;100525.89;;;18.18;38.50
49063;BME280;34876;51.464;-0.150;2023-04-22T08:27:34;100521.58;;;18.20;38.45
49063;BME280;34876;51.464;-0.150;2023-04-22T08:30:05;100519.76;;;18.21;38.41
49063;BME280;34876;51.464;-0.150;2023-04-22T08:32:35;100519.43;;;18.24;38.34
49063;BME280;34876;51.464;-0.150;2023-04-22T08:35:04;100517.52;;;18.25;38.36
49063;BME280;34876;51.464;-0.150;2023-04-22T08:37:34;100512.66;;;18.23;38.39
49063;BME280;34876;51.464;-0.150;2023-04-22T08:40:04;100516.20;;;18.22;38.42
49063;BME280;34876;51.464;-0.150;2023-04-22T08:42:39;100515.66;;;18.22;38.44
49063;BME280;34876;51.464;-0.150;2023-04-22T08:45:08;100517.33;;;18.24;38.42
49063;BME280;34876;51.464;-0.150;2023-04-22T08:47:38;100513.24;;;18.26;38.39
49063;BME280;34876;51.464;-0.150;2023-04-22T08:50:14;100512.93;;;18.24;38.42
49063;BME280;34876;51.464;-0.150;2023-04-22T08:52:43;100506.31;;;18.23;38.44
49063;BME280;34876;51.464;-0.150;2023-04-22T08:55:13;100505.20;;;18.22;38.53
49063;BME280;34876;51.464;-0.150;2023-04-22T08:57:43;100500.83;;;18.24;38.44
49063;BME280;34876;51.464;-0.150;2023-04-22T09:00:13;100496.33;;;18.24;38.45
49063;BME280;34876;51.464;-0.150;2023-04-22T09:02:45;100498.39;;;18.24;38.44
49063;BME280;34876;51.464;-0.150;2023-04-22T09:05:15;100498.38;;;18.22;38.45
49063;BME280;34876;51.464;-0.150;2023-04-22T09:07:47;100496.90;;;18.23;38.48
49063;BME280;34876;51.464;-0.150;2023-04-22T09:10:16;100498.01;;;18.24;38.50
49063;BME280;34876;51.464;-0.150;2023-04-22T09:12:46;100494.96;;;18.20;38.53
49063;BME280;34876;51.464;-0.150;2023-04-22T09:15:16;100492.81;;;18.23;38.49
49063;BME280;34876;51.464;-0.150;2023-04-22T09:17:46;100487.80;;;18.24;38.44
49063;BME280;34876;51.464;-0.150;2023-04-22T09:20:15;100484.12;;;18.28;38.36
49063;BME280;34876;51.464;-0.150;2023-04-22T09:22:46;100478.22;;;18.29;38.31
49063;BME280;34876;51.464;-0.150;2023-04-22T09:25:17;100477.27;;;18.33;38.22
49063;BME280;34876;51.464;-0.150;2023-04-22T09:27:48;100479.77;;;18.32;38.24
49063;BME280;34876;51.464;-0.150;2023-04-22T09:30:21;100479.50;;;18.28;38.38
49063;BME280;34876;51.464;-0.150;2023-04-22T09:32:52;100482.64;;;18.29;38.32
49063;BME280;34876;51.464;-0.150;2023-04-22T09:35:26;100473.55;;;18.28;38.39
49063;BME280;34876;51.464;-0.150;2023-04-22T09:37:58;100471.48;;;18.35;38.22
49063;BME280;34876;51.464;-0.150;2023-04-22T09:40:28;100468.29;;;18.41;38.08
49063;BME280;34876;51.464;-0.150;2023-04-22T09:43:00;100469.82;;;18.48;37.97
49063;BME280;34876;51.464;-0.150;2023-04-22T09:45:31;100466.42;;;18.53;37.81
49063;BME280;34876;51.464;-0.150;2023-04-22T09:48:06;100466.55;;;18.63;37.63
49063;BME280;34876;51.464;-0.150;2023-04-22T09:50:36;100468.67;;;18.50;37.84
49063;BME280;34876;51.464;-0.150;2023-04-22T09:53:08;100470.89;;;18.50;37.84
49063;BME280;34876;51.464;-0.150;2023-04-22T09:55:40;100469.96;;;18.49;37.87
49063;BME280;34876;51.464;-0.150;2023-04-22T09:58:10;100465.38;;;18.48;37.89
49063;BME280;34876;51.464;-0.150;2023-04-22T10:00:43;100465.80;;;18.52;37.83
49063;BME280;34876;51.464;-0.150;2023-04-22T10:03:12;100462.72;;;18.55;37.74
49063;BME280;34876;51.464;-0.150;2023-04-22T10:05:42;100463.63;;;18.64;37.57
49063;BME280;34876;51.464;-0.150;2023-04-22T10:08:13;100461.68;;;18.68;37.47
49063;BME280;34876;51.464;-0.150;2023-04-22T10:10:43;100468.83;;;18.63;37.58
49063;BME280;34876;51.464;-0.150;2023-04-22T10:13:13;100471.88;;;18.65;37.56
49063;BME280;34876;51.464;-0.150;2023-04-22T10:15:47;100472.91;;;18.66;37.53
49063;BME280;34876;51.464;-0.150;2023-04-22T10:18:21;100470.79;;;18.90;37.03
49063;BME280;34876;51.464;-0.150;2023-04-22T10:20:52;100471.70;;;18.84;37.15
49063;BME280;34876;51.464;-0.150;2023-04-22T10:23:24;100471.68;;;18.76;37.29
49063;BME280;34876;51.464;-0.150;2023-04-22T10:25:54;100473.70;;;18.80;37.23
49063;BME280;34876;51.464;-0.150;2023-04-22T10:28:27;100473.05;;;18.70;37.45
49063;BME280;34876;51.464;-0.150;2023-04-22T10:30:57;100473.89;;;18.76;37.29
49063;BME280;34876;51.464;-0.150;2023-04-22T10:33:42;100472.80;;;18.70;37.42
49063;BME280;34876;51.464;-0.150;2023-04-22T10:36:16;100469.10;;;18.84;37.17
49063;BME280;34876;51.464;-0.150;2023-04-22T10:39:18;100469.81;;;18.93;36.95
49063;BME280;34876;51.464;-0.150;2023-04-22T10:41:51;100467.63;;;18.84;37.15
49063;BME280;34876;51.464;-0.150;2023-04-22T10:44:21;100464.51;;;18.82;37.16
49063;BME280;34876;51.464;-0.150;2023-04-22T10:46:59;100463.80;;;18.85;36.21
49063;BME280;34876;51.464;-0.150;2023-04-22T10:49:29;100465.50;;;18.95;36.94
49063;BME280;34876;51.464;-0.150;2023-04-22T10:52:00;100469.21;;;18.90;37.04
49063;BME280;34876;51.464;-0.150;2023-04-22T10:55:02;100465.99;;;18.94;36.96
49063;BME280;34876;51.464;-0.150;2023-04-22T10:57:37;100461.51;;;18.93;36.98
49063;BME280;34876;51.464;-0.150;2023-04-22T11:00:24;100459.58;;;18.89;37.14
49063;BME280;34876;51.464;-0.150;2023-04-22T11:03:09;100459.72;;;18.73;37.37
49063;BME280;34876;51.464;-0.150;2023-04-22T11:05:40;100460.24;;;18.82;37.36
49063;BME280;34876;51.464;-0.150;2023-04-22T11:08:17;100462.20;;;18.90;37.21
49063;BME280;34876;51.464;-0.150;2023-04-22T11:10:48;100465.19;;;18.92;37.19
49063;BME280;34876;51.464;-0.150;2023-04-22T11:13:18;100466.35;;;18.84;37.28
49063;BME280;34876;51.464;-0.150;2023-04-22T11:15:50;100469.33;;;18.83;37.32
49063;BME280;34876;51.464;-0.150;2023-04-22T11:18:23;100469.95;;;18.86;37.39
49063;BME280;34876;51.464;-0.150;2023-04-22T11:20:53;100469.71;;;18.84;37.45
49063;BME280;34876;51.464;-0.150;2023-04-22T11:23:24;100472.88;;;18.82;37.71
49063;BME280;34876;51.464;-0.150;2023-04-22T11:25:55;100471.48;;;18.89;36.64
49063;BME280;34876;51.464;-0.150;2023-04-22T11:28:25;100472.62;;;18.98;37.23
49063;BME280;34876;51.464;-0.150;2023-04-22T11:31:01;100471.67;;;18.90;37.28
49063;BME280;34876;51.464;-0.150;2023-04-22T11:33:31;100473.27;;;18.96;37.17
49063;BME280;34876;51.464;-0.150;2023-04-22T11:36:01;100474.64;;;18.83;37.58
49063;BME280;34876;51.464;-0.150;2023-04-22T11:38:30;100475.68;;;18.78;37.82
49063;BME280;34876;51.464;-0.150;2023-04-22T11:40:59;100479.17;;;18.74;37.93
49063;BME280;34876;51.464;-0.150;2023-04-22T11:43:29;100478.54;;;18.72;37.90
49063;BME280;34876;51.464;-0.150;2023-04-22T11:45:59;100478.72;;;18.79;37.71
49063;BME280;34876;51.464;-0.150;2023-04-22T11:48:28;100473.89;;;18.77;37.92
49063;BME280;34876;51.464;-0.150;2023-04-22T11:51:13;100476.06;;;18.66;38.16
49063;BME280;34876;51.464;-0.150;2023-04-22T11:53:49;100477.64;;;18.59;38.35
49063;BME280;34876;51.464;-0.150;2023-04-22T11:56:19;100478.23;;;18.64;38.29
49063;BME280;34876;51.464;-0.150;2023-04-22T11:58:49;100476.19;;;18.65;38.62
49063;BME280;34876;51.464;-0.150;2023-04-22T12:01:18;100472.93;;;18.75;37.11
49063;BME280;34876;51.464;-0.150;2023-04-22T12:03:47;100470.62;;;18.50;38.44
49063;BME280;34876;51.464;-0.150;2023-04-22T12:06:16;100473.85;;;18.62;38.33
49063;BME280;34876;51.464;-0.150;2023-04-22T12:08:48;100471.77;;;18.66;38.14
49063;BME280;34876;51.464;-0.150;2023-04-22T12:11:20;100470.08;;;18.63;38.20
49063;BME280;34876;51.464;-0.150;2023-04-22T12:13:55;100470.51;;;18.79;37.81
49063;BME280;34876;51.464;-0.150;2023-04-22T12:16:24;100469.15;;;18.94;37.38
49063;BME280;34876;51.464;-0.150;2023-04-22T12:18:54;100469.55;;;18.91;37.63
49063;BME280;34876;51.464;-0.150;2023-04-22T12:21:24;100469.77;;;18.92;37.64
49063;BME280;34876;51.464;-0.150;2023-04-22T12:23:56;100470.68;;;18.80;37.93
49063;BME280;34876;51.464;-0.150;2023-04-22T12:26:26;100468.19;;;18.65;38.20
49063;BME280;34876;51.464;-0.150;2023-04-22T12:28:56;100467.66;;;18.62;38.15
49063;BME280;34876;51.464;-0.150;2023-04-22T12:31:26;100466.30;;;18.68;37.99
49063;BME280;34876;51.464;-0.150;2023-04-22T12:33:55;100471.22;;;18.64;38.24
49063;BME280;34876;51.464;-0.150;2023-04-22T12:36:24;100466.05;;;18.63;38.16
49063;BME280;34876;51.464;-0.150;2023-04-22T12:38:54;100460.59;;;18.61;38.02
49063;BME280;34876;51.464;-0.150;2023-04-22T12:41:23;100461.08;;;18.67;38.09
49063;BME280;34876;51.464;-0.150;2023-04-22T12:43:53;100460.50;;;18.79;37.81
49063;BME280;34876;51.464;-0.150;2023-04-22T12:46:21;100459.67;;;18.77;37.78
49063;BME280;34876;51.464;-0.150;2023-04-22T12:48:51;100457.63;;;18.69;37.60
49063;BME280;34876;51.464;-0.150;2023-04-22T12:51:20;100460.65;;;18.66;38.15
49063;BME280;34876;51.464;-0.150;2023-04-22T12:53:50;100465.85;;;18.67;38.23
49063;BME280;34876;51.464;-0.150;2023-04-22T12:56:19;100465.03;;;18.69;38.16
49063;BME280;34876;51.464;-0.150;2023-04-22T12:58:49;100465.71;;;18.59;36.63